sensor_id;sensor_type;location;lat;lon;timestamp;temperature;humidity
13472;DHT22;6808;49.444;11.034;2022-08-02T00:00:28;21.00;99.90
13472;DHT22;6808;49.444;11.034;2022-08-02T00:02:53;20.50;99.90
13472;DHT22;6808;49.444;11.034;2022-08-02T00:05:20;20.70;99.90
13472;DHT22;6808;49.444;11.034;2022-08-02T00:07:45;20.60;99.90
13472;DHT22;6808;49.444;11.034;2022-08-02T00:10:11;20.50;99.90
13472;DHT22;6808;49.444;11.034;2022-08-02T00:12:37;20.30;99.90
13472;DHT22;6808;49.444;11.034;2022-08-02T00:15:05;20.70;99.90
13472;DHT22;6808;49.444;11.034;2022-08-02T00:17:30;20.40;99.90
13472;DHT22;6808;49.444;11.034;2022-08-02T00:19:56;20.40;99.90
13472;DHT22;6808;49.444;11.034;2022-08-02T00:22:21;20.40;99.90
13472;DHT22;6808;49.444;11.034;2022-08-02T00:24:47;20.40;99.90
13472;DHT22;6808;49.444;11.034;2022-08-02T00:27:13;20.50;99.90
13472;DHT22;6808;49.444;11.034;2022-08-02T00:29:39;20.20;99.90
13472;DHT22;6808;49.444;11.034;2022-08-02T00:32:04;20.10;99.90
13472;DHT22;6808;49.444;11.034;2022-08-02T00:34:30;20.00;99.90
13472;DHT22;6808;49.444;11.034;2022-08-02T00:36:56;20.00;99.90
13472;DHT22;6808;49.444;11.034;2022-08-02T00:39:21;20.80;99.90
13472;DHT22;6808;49.444;11.034;2022-08-02T00:41:49;20.00;99.90
13472;DHT22;6808;49.444;11.034;2022-08-02T00:44:17;19.90;99.90
13472;DHT22;6808;49.444;11.034;2022-08-02T00:46:44;20.00;99.90
13472;DHT22;6808;49.444;11.034;2022-08-02T00:49:10;19.90;99.90
13472;DHT22;6808;49.444;11.034;2022-08-02T00:51:36;19.90;99.90
13472;DHT22;6808;49.444;11.034;2022-08-02T00:54:02;19.90;99.90
13472;DHT22;6808;49.444;11.034;2022-08-02T00:56:27;19.80;99.90
13472;DHT22;6808;49.444;11.034;2022-08-02T00:58:53;20.30;99.90
13472;DHT22;6808;49.444;11.034;2022-08-02T01:01:19;19.80;99.90
13472;DHT22;6808;49.444;11.034;2022-08-02T01:03:44;19.70;99.90
13472;DHT22;6808;49.444;11.034;2022-08-02T01:06:10;20.10;99.90
13472;DHT22;6808;49.444;11.034;2022-08-02T01:08:39;19.60;99.90
13472;DHT22;6808;49.444;11.034;2022-08-02T01:11:05;19.60;99.90
13472;DHT22;6808;49.444;11.034;2022-08-02T01:13:32;20.00;99.90
13472;DHT22;6808;49.444;11.034;2022-08-02T01:16:03;19.60;99.90
13472;DHT22;6808;49.444;11.034;2022-08-02T01:18:39;19.60;99.90
13472;DHT22;6808;49.444;11.034;2022-08-02T01:26:54;19.70;99.90
13472;DHT22;6808;49.444;11.034;2022-08-02T01:29:36;19.80;99.90
13472;DHT22;6808;49.444;11.034;2022-08-02T01:32:18;20.50;99.90
13472;DHT22;6808;49.444;11.034;2022-08-02T01:35:08;19.60;99.90
13472;DHT22;6808;49.444;11.034;2022-08-02T01:37:38;19.50;99.90
13472;DHT22;6808;49.444;11.034;2022-08-02T01:40:10;19.60;99.90
13472;DHT22;6808;49.444;11.034;2022-08-02T01:42:39;19.70;99.90
13472;DHT22;6808;49.444;11.034;2022-08-02T01:45:06;20.00;99.90
13472;DHT22;6808;49.444;11.034;2022-08-02T01:47:34;19.60;99.90
13472;DHT22;6808;49.444;11.034;2022-08-02T01:50:02;19.60;99.90
13472;DHT22;6808;49.444;11.034;2022-08-02T01:52:32;19.50;99.90
13472;DHT22;6808;49.444;11.034;2022-08-02T01:55:03;19.50;99.90
13472;DHT22;6808;49.444;11.034;2022-08-02T01:57:36;19.50;99.90
13472;DHT22;6808;49.444;11.034;2022-08-02T02:00:05;19.40;99.90
13472;DHT22;6808;49.444;11.034;2022-08-02T02:02:33;19.30;99.90
13472;DHT22;6808;49.444;11.034;2022-08-02T02:05:01;19.20;99.90
13472;DHT22;6808;49.444;11.034;2022-08-02T02:07:29;19.20;99.90
13472;DHT22;6808;49.444;11.034;2022-08-02T02:09:57;19.30;99.90
13472;DHT22;6808;49.444;11.034;2022-08-02T02:12:23;19.30;99.90
13472;DHT22;6808;49.444;11.034;2022-08-02T02:14:50;19.40;99.90
13472;DHT22;6808;49.444;11.034;2022-08-02T02:17:18;19.20;99.90
13472;DHT22;6808;49.444;11.034;2022-08-02T02:19:44;19.30;99.90
13472;DHT22;6808;49.444;11.034;2022-08-02T02:22:18;19.10;99.90
13472;DHT22;6808;49.444;11.034;2022-08-02T02:24:43;19.40;99.90
13472;DHT22;6808;49.444;11.034;2022-08-02T02:27:11;19.20;99.90
13472;DHT22;6808;49.444;11.034;2022-08-02T02:29:43;19.10;99.90
13472;DHT22;6808;49.444;11.034;2022-08-02T02:32:13;19.20;99.90
13472;DHT22;6808;49.444;11.034;2022-08-02T02:34:42;19.00;99.90
13472;DHT22;6808;49.444;11.034;2022-08-02T02:37:15;19.00;99.90
13472;DHT22;6808;49.444;11.034;2022-08-02T02:39:43;18.90;99.90
13472;DHT22;6808;49.444;11.034;2022-08-02T02:42:12;18.90;99.90
13472;DHT22;6808;49.444;11.034;2022-08-02T02:44:38;19.10;99.90
13472;DHT22;6808;49.444;11.034;2022-08-02T02:47:06;18.90;99.90
13472;DHT22;6808;49.444;11.034;2022-08-02T02:49:34;18.90;99.90
13472;DHT22;6808;49.444;11.034;2022-08-02T02:52:02;19.30;99.90
13472;DHT22;6808;49.444;11.034;2022-08-02T02:54:29;18.90;99.90
13472;DHT22;6808;49.444;11.034;2022-08-02T02:56:57;18.80;99.90
13472;DHT22;6808;49.444;11.034;2022-08-02T02:59:24;18.90;99.90
13472;DHT22;6808;49.444;11.034;2022-08-02T03:01:50;18.90;99.90
13472;DHT22;6808;49.444;11.034;2022-08-02T03:04:16;18.70;99.90
13472;DHT22;6808;49.444;11.034;2022-08-02T03:06:42;19.10;99.90
13472;DHT22;6808;49.444;11.034;2022-08-02T03:09:08;18.80;99.90
13472;DHT22;6808;49.444;11.034;2022-08-02T03:11:35;19.00;99.90
13472;DHT22;6808;49.444;11.034;2022-08-02T03:14:03;19.10;99.90
13472;DHT22;6808;49.444;11.034;2022-08-02T03:16:28;18.90;99.90
13472;DHT22;6808;49.444;11.034;2022-08-02T03:18:56;18.90;99.90
13472;DHT22;6808;49.444;11.034;2022-08-02T03:21:22;18.70;99.90
13472;DHT22;6808;49.444;11.034;2022-08-02T03:23:48;18.90;99.90
13472;DHT22;6808;49.444;11.034;2022-08-02T03:26:16;18.60;99.90
13472;DHT22;6808;49.444;11.034;2022-08-02T03:28:42;19.10;99.90
13472;DHT22;6808;49.444;11.034;2022-08-02T03:31:09;18.60;99.90
13472;DHT22;6808;49.444;11.034;2022-08-02T03:33:35;18.60;99.90
13472;DHT22;6808;49.444;11.034;2022-08-02T03:36:05;18.50;99.90
13472;DHT22;6808;49.444;11.034;2022-08-02T03:38:33;18.50;99.90
13472;DHT22;6808;49.444;11.034;2022-08-02T03:41:01;18.70;99.90
13472;DHT22;6808;49.444;11.034;2022-08-02T03:43:29;18.40;99.90
13472;DHT22;6808;49.444;11.034;2022-08-02T03:45:56;18.60;99.90
13472;DHT22;6808;49.444;11.034;2022-08-02T03:48:22;18.40;99.90
13472;DHT22;6808;49.444;11.034;2022-08-02T03:50:49;18.50;99.90
13472;DHT22;6808;49.444;11.034;2022-08-02T03:53:16;18.50;99.90
13472;DHT22;6808;49.444;11.034;2022-08-02T03:55:43;18.40;99.90
13472;DHT22;6808;49.444;11.034;2022-08-02T03:58:14;18.30;99.90
13472;DHT22;6808;49.444;11.034;2022-08-02T04:00:40;18.30;99.90
13472;DHT22;6808;49.444;11.034;2022-08-02T04:03:06;18.40;99.90
13472;DHT22;6808;49.444;11.034;2022-08-02T04:05:31;18.40;99.90
13472;DHT22;6808;49.444;11.034;2022-08-02T04:07:57;18.40;99.90
13472;DHT22;6808;49.444;11.034;2022-08-02T04:10:23;18.40;99.90
13472;DHT22;6808;49.444;11.034;2022-08-02T04:12:48;18.90;99.90
13472;DHT22;6808;49.444;11.034;2022-08-02T04:15:14;18.90;99.90
13472;DHT22;6808;49.444;11.034;2022-08-02T04:17:48;18.30;99.90
13472;DHT22;6808;49.444;11.034;2022-08-02T04:20:20;18.40;99.90
13472;DHT22;6808;49.444;11.034;2022-08-02T04:22:50;18.40;99.90
13472;DHT22;6808;49.444;11.034;2022-08-02T04:25:19;18.30;99.90
13472;DHT22;6808;49.444;11.034;2022-08-02T04:27:45;18.40;99.90
13472;DHT22;6808;49.444;11.034;2022-08-02T04:30:11;18.20;99.90
13472;DHT22;6808;49.444;11.034;2022-08-02T04:32:38;18.20;99.90
13472;DHT22;6808;49.444;11.034;2022-08-02T04:35:06;18.50;99.90
13472;DHT22;6808;49.444;11.034;2022-08-02T04:37:34;18.10;99.90
13472;DHT22;6808;49.444;11.034;2022-08-02T04:40:19;18.20;99.90
13472;DHT22;6808;49.444;11.034;2022-08-02T04:42:45;18.20;99.90
13472;DHT22;6808;49.444;11.034;2022-08-02T04:45:13;18.20;99.90
13472;DHT22;6808;49.444;11.034;2022-08-02T04:47:39;18.70;99.90
13472;DHT22;6808;49.444;11.034;2022-08-02T04:50:05;18.20;99.90
13472;DHT22;6808;49.444;11.034;2022-08-02T04:52:32;18.30;99.90
13472;DHT22;6808;49.444;11.034;2022-08-02T04:55:00;18.30;99.90
13472;DHT22;6808;49.444;11.034;2022-08-02T04:57:25;18.60;99.90
13472;DHT22;6808;49.444;11.034;2022-08-02T05:00:10;18.60;99.90
13472;DHT22;6808;49.444;11.034;2022-08-02T05:02:36;18.50;99.90
13472;DHT22;6808;49.444;11.034;2022-08-02T05:05:02;18.50;99.90
13472;DHT22;6808;49.444;11.034;2022-08-02T05:07:28;18.60;99.90
13472;DHT22;6808;49.444;11.034;2022-08-02T05:09:53;18.70;99.90
13472;DHT22;6808;49.444;11.034;2022-08-02T05:12:19;18.80;99.90
13472;DHT22;6808;49.444;11.034;2022-08-02T05:14:48;18.90;99.90
13472;DHT22;6808;49.444;11.034;2022-08-02T05:17:20;18.90;99.90
13472;DHT22;6808;49.444;11.034;2022-08-02T05:19:45;19.00;99.90
13472;DHT22;6808;49.444;11.034;2022-08-02T05:22:11;19.10;99.90
13472;DHT22;6808;49.444;11.034;2022-08-02T05:24:36;19.10;99.90
13472;DHT22;6808;49.444;11.034;2022-08-02T05:27:02;19.10;99.90
13472;DHT22;6808;49.444;11.034;2022-08-02T05:29:27;19.10;99.90
13472;DHT22;6808;49.444;11.034;2022-08-02T05:31:53;19.10;99.90
13472;DHT22;6808;49.444;11.034;2022-08-02T05:34:19;19.30;99.90
13472;DHT22;6808;49.444;11.034;2022-08-02T05:36:44;19.10;99.90
13472;DHT22;6808;49.444;11.034;2022-08-02T05:39:10;19.20;99.90
13472;DHT22;6808;49.444;11.034;2022-08-02T05:41:36;19.50;99.90
13472;DHT22;6808;49.444;11.034;2022-08-02T05:44:02;19.60;99.90
13472;DHT22;6808;49.444;11.034;2022-08-02T05:46:28;19.40;99.90
13472;DHT22;6808;49.444;11.034;2022-08-02T05:48:53;19.40;99.90
13472;DHT22;6808;49.444;11.034;2022-08-02T05:51:28;19.70;99.90
13472;DHT22;6808;49.444;11.034;2022-08-02T05:54:18;19.90;99.90
13472;DHT22;6808;49.444;11.034;2022-08-02T06:05:03;20.20;99.90
13472;DHT22;6808;49.444;11.034;2022-08-02T06:07:33;20.50;99.90
13472;DHT22;6808;49.444;11.034;2022-08-02T06:10:01;20.90;99.90
13472;DHT22;6808;49.444;11.034;2022-08-02T06:12:28;21.20;99.90
13472;DHT22;6808;49.444;11.034;2022-08-02T06:14:56;21.60;99.90
13472;DHT22;6808;49.444;11.034;2022-08-02T06:17:24;21.60;99.90
13472;DHT22;6808;49.444;11.034;2022-08-02T06:19:49;21.60;99.90
13472;DHT22;6808;49.444;11.034;2022-08-02T06:22:18;21.80;99.90
13472;DHT22;6808;49.444;11.034;2022-08-02T06:24:45;22.00;99.90
13472;DHT22;6808;49.444;11.034;2022-08-02T06:27:13;21.90;99.90
13472;DHT22;6808;49.444;11.034;2022-08-02T06:29:42;21.80;99.90
13472;DHT22;6808;49.444;11.034;2022-08-02T06:32:08;21.50;99.90
13472;DHT22;6808;49.444;11.034;2022-08-02T06:34:38;21.50;99.90
13472;DHT22;6808;49.444;11.034;2022-08-02T06:38:07;21.70;99.90
13472;DHT22;6808;49.444;11.034;2022-08-02T06:40:13;21.80;99.90
13472;DHT22;6808;49.444;11.034;2022-08-02T06:45:26;21.90;99.90
13472;DHT22;6808;49.444;11.034;2022-08-02T06:47:53;22.00;99.90
13472;DHT22;6808;49.444;11.034;2022-08-02T06:50:19;22.10;99.90
13472;DHT22;6808;49.444;11.034;2022-08-02T06:52:47;22.10;99.90
13472;DHT22;6808;49.444;11.034;2022-08-02T06:55:12;22.30;99.90
13472;DHT22;6808;49.444;11.034;2022-08-02T06:57:38;22.50;99.90
13472;DHT22;6808;49.444;11.034;2022-08-02T07:00:07;22.50;99.80
13472;DHT22;6808;49.444;11.034;2022-08-02T07:02:34;22.60;99.90
13472;DHT22;6808;49.444;11.034;2022-08-02T07:05:01;22.70;99.70
13472;DHT22;6808;49.444;11.034;2022-08-02T07:07:27;22.90;99.60
13472;DHT22;6808;49.444;11.034;2022-08-02T07:09:53;23.00;99.60
13472;DHT22;6808;49.444;11.034;2022-08-02T07:12:19;23.10;98.60
13472;DHT22;6808;49.444;11.034;2022-08-02T07:14:45;23.20;98.70
13472;DHT22;6808;49.444;11.034;2022-08-02T07:17:11;23.30;98.80
13472;DHT22;6808;49.444;11.034;2022-08-02T07:19:37;23.30;98.70
13472;DHT22;6808;49.444;11.034;2022-08-02T07:22:08;23.40;98.80
13472;DHT22;6808;49.444;11.034;2022-08-02T07:24:34;23.30;98.90
13472;DHT22;6808;49.444;11.034;2022-08-02T07:27:00;23.10;98.60
13472;DHT22;6808;49.444;11.034;2022-08-02T07:29:27;23.30;98.60
13472;DHT22;6808;49.444;11.034;2022-08-02T07:31:53;23.40;98.90
13472;DHT22;6808;49.444;11.034;2022-08-02T07:34:18;23.50;98.00
13472;DHT22;6808;49.444;11.034;2022-08-02T07:36:44;23.70;97.50
13472;DHT22;6808;49.444;11.034;2022-08-02T07:39:09;24.20;97.60
13472;DHT22;6808;49.444;11.034;2022-08-02T07:41:35;24.30;96.70
13472;DHT22;6808;49.444;11.034;2022-08-02T07:44:01;24.60;96.40
13472;DHT22;6808;49.444;11.034;2022-08-02T07:46:26;24.70;96.30
13472;DHT22;6808;49.444;11.034;2022-08-02T07:48:54;24.90;95.50
13472;DHT22;6808;49.444;11.034;2022-08-02T07:51:20;24.90;95.90
13472;DHT22;6808;49.444;11.034;2022-08-02T07:53:47;24.90;96.10
13472;DHT22;6808;49.444;11.034;2022-08-02T07:56:12;25.00;95.90
13472;DHT22;6808;49.444;11.034;2022-08-02T07:58:40;25.10;96.10
13472;DHT22;6808;49.444;11.034;2022-08-02T08:01:05;24.90;95.80
13472;DHT22;6808;49.444;11.034;2022-08-02T08:03:32;24.80;95.70
13472;DHT22;6808;49.444;11.034;2022-08-02T08:05:58;24.70;97.10
13472;DHT22;6808;49.444;11.034;2022-08-02T08:08:23;25.00;96.40
13472;DHT22;6808;49.444;11.034;2022-08-02T08:10:49;24.90;96.10
13472;DHT22;6808;49.444;11.034;2022-08-02T08:13:14;25.00;95.00
13472;DHT22;6808;49.444;11.034;2022-08-02T08:15:40;25.20;95.40
13472;DHT22;6808;49.444;11.034;2022-08-02T08:18:06;25.10;95.90
13472;DHT22;6808;49.444;11.034;2022-08-02T08:20:32;25.30;96.40
13472;DHT22;6808;49.444;11.034;2022-08-02T08:22:57;25.20;94.60
13472;DHT22;6808;49.444;11.034;2022-08-02T08:25:25;25.30;94.00
13472;DHT22;6808;49.444;11.034;2022-08-02T08:27:51;25.20;97.50
13472;DHT22;6808;49.444;11.034;2022-08-02T08:30:18;25.20;98.20
13472;DHT22;6808;49.444;11.034;2022-08-02T08:32:44;25.30;96.20
13472;DHT22;6808;49.444;11.034;2022-08-02T08:35:11;25.20;94.90
13472;DHT22;6808;49.444;11.034;2022-08-02T08:37:37;25.30;96.30
13472;DHT22;6808;49.444;11.034;2022-08-02T08:40:04;25.40;96.60
13472;DHT22;6808;49.444;11.034;2022-08-02T08:42:31;25.10;95.80
13472;DHT22;6808;49.444;11.034;2022-08-02T08:44:57;25.10;97.50
13472;DHT22;6808;49.444;11.034;2022-08-02T08:47:24;25.10;94.80
13472;DHT22;6808;49.444;11.034;2022-08-02T08:49:54;25.20;96.00
13472;DHT22;6808;49.444;11.034;2022-08-02T08:52:24;25.20;95.90
13472;DHT22;6808;49.444;11.034;2022-08-02T08:54:52;25.50;95.60
13472;DHT22;6808;49.444;11.034;2022-08-02T08:57:19;25.10;93.40
13472;DHT22;6808;49.444;11.034;2022-08-02T08:59:45;25.10;96.40
13472;DHT22;6808;49.444;11.034;2022-08-02T09:02:11;25.20;96.50
13472;DHT22;6808;49.444;11.034;2022-08-02T09:04:37;25.20;96.70
13472;DHT22;6808;49.444;11.034;2022-08-02T09:07:02;25.30;95.60
13472;DHT22;6808;49.444;11.034;2022-08-02T09:09:28;25.30;96.10
13472;DHT22;6808;49.444;11.034;2022-08-02T09:11:53;25.10;95.10
13472;DHT22;6808;49.444;11.034;2022-08-02T09:14:27;25.10;95.00
13472;DHT22;6808;49.444;11.034;2022-08-02T09:17:08;25.30;95.20
13472;DHT22;6808;49.444;11.034;2022-08-02T09:19:34;25.20;94.40
13472;DHT22;6808;49.444;11.034;2022-08-02T09:22:09;25.20;94.80
13472;DHT22;6808;49.444;11.034;2022-08-02T09:27:15;25.50;92.80
13472;DHT22;6808;49.444;11.034;2022-08-02T09:29:46;25.70;94.80
13472;DHT22;6808;49.444;11.034;2022-08-02T09:32:12;25.70;92.30
13472;DHT22;6808;49.444;11.034;2022-08-02T09:34:51;25.70;92.20
13472;DHT22;6808;49.444;11.034;2022-08-02T09:37:22;25.80;92.20
13472;DHT22;6808;49.444;11.034;2022-08-02T09:39:49;25.90;97.20
13472;DHT22;6808;49.444;11.034;2022-08-02T09:42:14;26.10;94.20
13472;DHT22;6808;49.444;11.034;2022-08-02T09:44:55;26.10;92.60
13472;DHT22;6808;49.444;11.034;2022-08-02T09:47:23;26.20;91.70
13472;DHT22;6808;49.444;11.034;2022-08-02T09:49:49;26.30;91.00
13472;DHT22;6808;49.444;11.034;2022-08-02T09:52:28;26.50;96.70
13472;DHT22;6808;49.444;11.034;2022-08-02T09:54:54;26.40;90.80
13472;DHT22;6808;49.444;11.034;2022-08-02T09:57:27;26.40;89.20
13472;DHT22;6808;49.444;11.034;2022-08-02T09:59:57;26.40;92.10
13472;DHT22;6808;49.444;11.034;2022-08-02T10:02:23;26.40;91.90
13472;DHT22;6808;49.444;11.034;2022-08-02T10:04:49;26.60;89.20
13472;DHT22;6808;49.444;11.034;2022-08-02T10:07:16;26.70;95.70
13472;DHT22;6808;49.444;11.034;2022-08-02T10:09:43;26.90;91.60
13472;DHT22;6808;49.444;11.034;2022-08-02T10:12:11;26.90;92.20
13472;DHT22;6808;49.444;11.034;2022-08-02T10:14:37;27.00;89.20
13472;DHT22;6808;49.444;11.034;2022-08-02T10:17:03;27.00;91.10
13472;DHT22;6808;49.444;11.034;2022-08-02T10:19:31;27.00;88.80
13472;DHT22;6808;49.444;11.034;2022-08-02T10:22:09;27.00;84.00
13472;DHT22;6808;49.444;11.034;2022-08-02T10:24:37;26.90;83.70
13472;DHT22;6808;49.444;11.034;2022-08-02T10:27:06;27.00;93.90
13472;DHT22;6808;49.444;11.034;2022-08-02T10:29:38;27.20;91.30
13472;DHT22;6808;49.444;11.034;2022-08-02T10:32:06;27.30;90.20
13472;DHT22;6808;49.444;11.034;2022-08-02T10:34:57;27.40;85.40
13472;DHT22;6808;49.444;11.034;2022-08-02T10:37:37;27.40;83.10
13472;DHT22;6808;49.444;11.034;2022-08-02T10:40:05;27.50;90.00
13472;DHT22;6808;49.444;11.034;2022-08-02T10:42:48;27.80;93.30
13472;DHT22;6808;49.444;11.034;2022-08-02T10:45:19;27.90;90.10
13472;DHT22;6808;49.444;11.034;2022-08-02T10:48:08;27.90;83.10
13472;DHT22;6808;49.444;11.034;2022-08-02T10:53:30;28.20;89.40
13472;DHT22;6808;49.444;11.034;2022-08-02T10:56:01;28.30;90.10
13472;DHT22;6808;49.444;11.034;2022-08-02T10:58:29;28.30;91.20
13472;DHT22;6808;49.444;11.034;2022-08-02T11:01:03;28.30;91.30
13472;DHT22;6808;49.444;11.034;2022-08-02T11:03:33;28.30;90.70
13472;DHT22;6808;49.444;11.034;2022-08-02T11:06:10;28.10;79.60
13472;DHT22;6808;49.444;11.034;2022-08-02T11:08:36;27.70;77.50
13472;DHT22;6808;49.444;11.034;2022-08-02T11:14:06;27.90;79.80
13472;DHT22;6808;49.444;11.034;2022-08-02T11:19:24;27.70;84.20
13472;DHT22;6808;49.444;11.034;2022-08-02T11:22:10;28.00;87.00
13472;DHT22;6808;49.444;11.034;2022-08-02T11:24:37;28.20;88.90
13472;DHT22;6808;49.444;11.034;2022-08-02T11:27:05;28.30;85.30
13472;DHT22;6808;49.444;11.034;2022-08-02T11:29:36;28.40;76.40
13472;DHT22;6808;49.444;11.034;2022-08-02T11:32:02;28.30;79.80
13472;DHT22;6808;49.444;11.034;2022-08-02T11:34:30;28.00;73.30
13472;DHT22;6808;49.444;11.034;2022-08-02T11:36:57;28.00;83.40
13472;DHT22;6808;49.444;11.034;2022-08-02T11:39:23;28.30;80.90
13472;DHT22;6808;49.444;11.034;2022-08-02T11:41:53;28.50;79.60
13472;DHT22;6808;49.444;11.034;2022-08-02T11:44:19;28.70;80.20
13472;DHT22;6808;49.444;11.034;2022-08-02T11:46:53;28.90;77.40
13472;DHT22;6808;49.444;11.034;2022-08-02T11:49:19;29.00;68.20
13472;DHT22;6808;49.444;11.034;2022-08-02T11:51:56;29.20;68.70
13472;DHT22;6808;49.444;11.034;2022-08-02T11:54:32;29.30;82.20
13472;DHT22;6808;49.444;11.034;2022-08-02T11:59:41;29.50;82.00
13472;DHT22;6808;49.444;11.034;2022-08-02T12:02:07;29.40;72.40
13472;DHT22;6808;49.444;11.034;2022-08-02T12:04:34;29.30;75.30
13472;DHT22;6808;49.444;11.034;2022-08-02T12:07:01;29.30;83.10
13472;DHT22;6808;49.444;11.034;2022-08-02T12:09:28;29.40;79.90
13472;DHT22;6808;49.444;11.034;2022-08-02T12:11:55;29.60;75.10
13472;DHT22;6808;49.444;11.034;2022-08-02T12:14:22;29.70;66.40
13472;DHT22;6808;49.444;11.034;2022-08-02T12:16:48;29.70;67.70
13472;DHT22;6808;49.444;11.034;2022-08-02T12:19:46;29.30;72.80
13472;DHT22;6808;49.444;11.034;2022-08-02T12:22:16;29.40;70.40
13472;DHT22;6808;49.444;11.034;2022-08-02T12:24:50;29.60;82.70
13472;DHT22;6808;49.444;11.034;2022-08-02T12:27:37;29.90;75.10
13472;DHT22;6808;49.444;11.034;2022-08-02T12:30:15;30.00;64.10
13472;DHT22;6808;49.444;11.034;2022-08-02T12:32:42;30.00;59.50
13472;DHT22;6808;49.444;11.034;2022-08-02T12:35:14;29.90;58.00
13472;DHT22;6808;49.444;11.034;2022-08-02T12:37:44;29.70;64.20
13472;DHT22;6808;49.444;11.034;2022-08-02T12:40:30;29.70;71.40
13472;DHT22;6808;49.444;11.034;2022-08-02T12:43:01;29.80;59.40
13472;DHT22;6808;49.444;11.034;2022-08-02T12:45:31;30.10;70.10
13472;DHT22;6808;49.444;11.034;2022-08-02T12:47:59;30.20;59.80
13472;DHT22;6808;49.444;11.034;2022-08-02T12:50:30;30.20;66.30
13472;DHT22;6808;49.444;11.034;2022-08-02T12:53:03;30.20;63.30
13472;DHT22;6808;49.444;11.034;2022-08-02T12:55:29;30.10;59.60
13472;DHT22;6808;49.444;11.034;2022-08-02T12:58:00;30.10;62.80
13472;DHT22;6808;49.444;11.034;2022-08-02T13:00:32;29.90;64.10
13472;DHT22;6808;49.444;11.034;2022-08-02T13:02:59;29.70;60.30
13472;DHT22;6808;49.444;11.034;2022-08-02T13:05:27;29.50;57.50
13472;DHT22;6808;49.444;11.034;2022-08-02T13:07:56;29.40;58.30
13472;DHT22;6808;49.444;11.034;2022-08-02T13:10:24;29.30;56.70
13472;DHT22;6808;49.444;11.034;2022-08-02T13:12:50;29.20;59.50
13472;DHT22;6808;49.444;11.034;2022-08-02T13:15:16;29.10;59.70
13472;DHT22;6808;49.444;11.034;2022-08-02T13:17:42;29.10;58.00
13472;DHT22;6808;49.444;11.034;2022-08-02T13:20:08;29.00;58.10
13472;DHT22;6808;49.444;11.034;2022-08-02T13:22:36;29.00;57.40
13472;DHT22;6808;49.444;11.034;2022-08-02T13:25:03;29.00;57.80
13472;DHT22;6808;49.444;11.034;2022-08-02T13:27:28;29.00;60.60
13472;DHT22;6808;49.444;11.034;2022-08-02T13:29:56;29.00;57.60
13472;DHT22;6808;49.444;11.034;2022-08-02T13:32:22;28.90;61.40
13472;DHT22;6808;49.444;11.034;2022-08-02T13:34:48;28.80;59.20
13472;DHT22;6808;49.444;11.034;2022-08-02T13:37:14;28.90;62.30
13472;DHT22;6808;49.444;11.034;2022-08-02T13:39:40;28.90;58.20
13472;DHT22;6808;49.444;11.034;2022-08-02T13:42:05;29.00;65.90
13472;DHT22;6808;49.444;11.034;2022-08-02T13:44:32;29.20;58.90
13472;DHT22;6808;49.444;11.034;2022-08-02T13:46:59;29.40;56.60
13472;DHT22;6808;49.444;11.034;2022-08-02T13:49:25;29.60;60.40
13472;DHT22;6808;49.444;11.034;2022-08-02T13:51:50;29.70;71.80
13472;DHT22;6808;49.444;11.034;2022-08-02T13:54:16;29.90;56.70
13472;DHT22;6808;49.444;11.034;2022-08-02T13:56:42;30.10;56.90
13472;DHT22;6808;49.444;11.034;2022-08-02T13:59:08;30.20;56.00
13472;DHT22;6808;49.444;11.034;2022-08-02T14:01:33;30.30;63.70
13472;DHT22;6808;49.444;11.034;2022-08-02T14:03:59;30.50;58.60
13472;DHT22;6808;49.444;11.034;2022-08-02T14:06:25;30.50;54.80
13472;DHT22;6808;49.444;11.034;2022-08-02T14:08:51;30.70;63.40
13472;DHT22;6808;49.444;11.034;2022-08-02T14:11:18;30.70;55.90
13472;DHT22;6808;49.444;11.034;2022-08-02T14:13:43;30.90;57.20
13472;DHT22;6808;49.444;11.034;2022-08-02T14:16:09;30.90;55.40
13472;DHT22;6808;49.444;11.034;2022-08-02T14:18:35;31.00;55.90
13472;DHT22;6808;49.444;11.034;2022-08-02T14:21:01;31.10;54.90
13472;DHT22;6808;49.444;11.034;2022-08-02T14:23:26;31.20;55.40
13472;DHT22;6808;49.444;11.034;2022-08-02T14:25:57;31.20;56.70
13472;DHT22;6808;49.444;11.034;2022-08-02T14:28:24;31.20;54.30
13472;DHT22;6808;49.444;11.034;2022-08-02T14:30:49;31.10;53.40
13472;DHT22;6808;49.444;11.034;2022-08-02T14:33:15;31.10;52.80
13472;DHT22;6808;49.444;11.034;2022-08-02T14:35:43;31.00;56.00
13472;DHT22;6808;49.444;11.034;2022-08-02T14:38:09;31.00;56.40
13472;DHT22;6808;49.444;11.034;2022-08-02T14:40:34;31.00;53.60
13472;DHT22;6808;49.444;11.034;2022-08-02T14:43:00;30.90;53.50
13472;DHT22;6808;49.444;11.034;2022-08-02T14:45:26;31.00;53.10
13472;DHT22;6808;49.444;11.034;2022-08-02T14:47:54;30.80;54.20
13472;DHT22;6808;49.444;11.034;2022-08-02T14:50:20;30.80;53.40
13472;DHT22;6808;49.444;11.034;2022-08-02T14:52:47;30.80;51.20
13472;DHT22;6808;49.444;11.034;2022-08-02T14:55:13;30.90;51.60
13472;DHT22;6808;49.444;11.034;2022-08-02T14:57:39;30.90;52.20
13472;DHT22;6808;49.444;11.034;2022-08-02T15:00:05;30.90;51.00
13472;DHT22;6808;49.444;11.034;2022-08-02T15:02:31;30.80;53.30
13472;DHT22;6808;49.444;11.034;2022-08-02T15:04:57;30.80;52.90
13472;DHT22;6808;49.444;11.034;2022-08-02T15:07:23;30.90;49.80
13472;DHT22;6808;49.444;11.034;2022-08-02T15:09:48;30.90;51.50
13472;DHT22;6808;49.444;11.034;2022-08-02T15:12:14;30.90;53.70
13472;DHT22;6808;49.444;11.034;2022-08-02T15:14:40;30.80;51.90
13472;DHT22;6808;49.444;11.034;2022-08-02T15:17:06;30.70;52.50
13472;DHT22;6808;49.444;11.034;2022-08-02T15:19:32;30.50;52.00
13472;DHT22;6808;49.444;11.034;2022-08-02T15:21:58;30.40;53.20
13472;DHT22;6808;49.444;11.034;2022-08-02T15:24:24;30.20;51.20
13472;DHT22;6808;49.444;11.034;2022-08-02T15:26:50;30.20;51.50
13472;DHT22;6808;49.444;11.034;2022-08-02T15:29:18;30.10;52.40
13472;DHT22;6808;49.444;11.034;2022-08-02T15:31:44;30.00;50.90
13472;DHT22;6808;49.444;11.034;2022-08-02T15:34:10;30.00;52.20
13472;DHT22;6808;49.444;11.034;2022-08-02T15:36:35;30.00;51.00
13472;DHT22;6808;49.444;11.034;2022-08-02T15:39:01;29.90;49.80
13472;DHT22;6808;49.444;11.034;2022-08-02T15:41:26;29.90;50.70
13472;DHT22;6808;49.444;11.034;2022-08-02T15:43:53;30.00;50.70
13472;DHT22;6808;49.444;11.034;2022-08-02T15:46:19;30.10;51.20
13472;DHT22;6808;49.444;11.034;2022-08-02T15:48:44;30.20;52.00
13472;DHT22;6808;49.444;11.034;2022-08-02T15:51:10;30.20;51.20
13472;DHT22;6808;49.444;11.034;2022-08-02T15:53:35;30.20;52.20
13472;DHT22;6808;49.444;11.034;2022-08-02T15:56:01;30.10;51.60
13472;DHT22;6808;49.444;11.034;2022-08-02T15:58:27;30.20;51.90
13472;DHT22;6808;49.444;11.034;2022-08-02T16:00:52;30.10;50.40
13472;DHT22;6808;49.444;11.034;2022-08-02T16:03:19;30.10;52.10
13472;DHT22;6808;49.444;11.034;2022-08-02T16:05:45;30.00;51.30